sensor_id;sensor_type;location;lat;lon;timestamp;pressure;altitude;pressure_sealevel;temperature;humidity
73024;BME280;61199;47.526;8.538;2023-08-17T00:01:09;96521.16;;;26.21;57.92
73024;BME280;61199;47.526;8.538;2023-08-17T00:03:35;96510.78;;;26.36;57.12
73024;BME280;61199;47.526;8.538;2023-08-17T00:06:02;96510.19;;;26.34;57.12
73024;BME280;61199;47.526;8.538;2023-08-17T00:08:28;96506.78;;;26.15;57.55
73024;BME280;61199;47.526;8.538;2023-08-17T00:10:54;96509.03;;;26.30;57.04
73024;BME280;61199;47.526;8.538;2023-08-17T00:13:21;96500.69;;;26.08;57.48
73024;BME280;61199;47.526;8.538;2023-08-17T00:15:47;96502.56;;;25.90;58.19
73024;BME280;61199;47.526;8.538;2023-08-17T00:18:14;96506.84;;;25.97;57.84
73024;BME280;61199;47.526;8.538;2023-08-17T00:20:40;96498.00;;;26.08;57.45
73024;BME280;61199;47.526;8.538;2023-08-17T00:23:07;96500.94;;;26.18;57.06
73024;BME280;61199;47.526;8.538;2023-08-17T00:25:34;96504.78;;;26.11;57.40
73024;BME280;61199;47.526;8.538;2023-08-17T00:28:02;96500.69;;;26.08;57.72
73024;BME280;61199;47.526;8.538;2023-08-17T00:30:28;96500.78;;;25.84;58.54
73024;BME280;61199;47.526;8.538;2023-08-17T00:32:54;96499.47;;;25.93;58.24
73024;BME280;61199;47.526;8.538;2023-08-17T00:35:21;96499.22;;;25.94;57.95
73024;BME280;61199;47.526;8.538;2023-08-17T00:37:48;96498.69;;;26.04;56.96
73024;BME280;61199;47.526;8.538;2023-08-17T00:40:14;96497.09;;;25.96;57.49
73024;BME280;61199;47.526;8.538;2023-08-17T00:42:41;96498.41;;;25.76;57.63
73024;BME280;61199;47.526;8.538;2023-08-17T00:45:07;96497.00;;;25.73;57.82
73024;BME280;61199;47.526;8.538;2023-08-17T00:47:34;96501.47;;;25.79;58.12
73024;BME280;61199;47.526;8.538;2023-08-17T00:50:01;96496.47;;;25.65;58.17
73024;BME280;61199;47.526;8.538;2023-08-17T00:52:28;96500.38;;;25.69;57.88
73024;BME280;61199;47.526;8.538;2023-08-17T00:54:55;96493.19;;;25.63;58.64
73024;BME280;61199;47.526;8.538;2023-08-17T00:57:22;96491.56;;;25.62;58.79
73024;BME280;61199;47.526;8.538;2023-08-17T00:59:50;96498.44;;;25.58;59.02
73024;BME280;61199;47.526;8.538;2023-08-17T01:02:31;96499.53;;;25.50;58.95
73024;BME280;61199;47.526;8.538;2023-08-17T01:04:57;96503.94;;;25.45;59.14
73024;BME280;61199;47.526;8.538;2023-08-17T01:07:24;96501.72;;;25.42;59.21
73024;BME280;61199;47.526;8.538;2023-08-17T01:09:51;96507.25;;;25.29;59.99
73024;BME280;61199;47.526;8.538;2023-08-17T01:12:26;96498.84;;;25.19;60.39
73024;BME280;61199;47.526;8.538;2023-08-17T01:15:16;96507.94;;;25.24;60.46
73024;BME280;61199;47.526;8.538;2023-08-17T01:17:56;96511.13;;;25.33;60.26
73024;BME280;61199;47.526;8.538;2023-08-17T01:20:24;96512.09;;;25.38;59.29
73024;BME280;61199;47.526;8.538;2023-08-17T01:22:55;96511.50;;;25.36;59.73
73024;BME280;61199;47.526;8.538;2023-08-17T01:25:23;96508.28;;;25.28;59.92
73024;BME280;61199;47.526;8.538;2023-08-17T01:27:49;96521.56;;;25.23;60.00
73024;BME280;61199;47.526;8.538;2023-08-17T01:30:17;96526.97;;;25.16;60.25
73024;BME280;61199;47.526;8.538;2023-08-17T01:38:15;96512.25;;;25.25;59.98
73024;BME280;61199;47.526;8.538;2023-08-17T01:40:45;96511.41;;;25.25;60.22
73024;BME280;61199;47.526;8.538;2023-08-17T01:43:14;96517.50;;;25.14;60.76
73024;BME280;61199;47.526;8.538;2023-08-17T01:45:42;96513.31;;;25.18;60.43
73024;BME280;61199;47.526;8.538;2023-08-17T01:48:09;96518.00;;;25.29;60.25
73024;BME280;61199;47.526;8.538;2023-08-17T01:50:35;96516.78;;;25.25;59.86
73024;BME280;61199;47.526;8.538;2023-08-17T01:53:01;96510.81;;;25.23;60.30
73024;BME280;61199;47.526;8.538;2023-08-17T01:55:28;96519.72;;;25.17;60.23
73024;BME280;61199;47.526;8.538;2023-08-17T01:57:54;96523.94;;;25.31;59.15
73024;BME280;61199;47.526;8.538;2023-08-17T02:00:21;96512.19;;;25.07;60.44
73024;BME280;61199;47.526;8.538;2023-08-17T02:02:47;96508.66;;;24.89;61.33
73024;BME280;61199;47.526;8.538;2023-08-17T02:05:14;96511.78;;;24.86;60.95
73024;BME280;61199;47.526;8.538;2023-08-17T02:07:40;96514.84;;;24.89;60.68
73024;BME280;61199;47.526;8.538;2023-08-17T02:10:07;96508.59;;;24.95;60.25
73024;BME280;61199;47.526;8.538;2023-08-17T02:12:33;96504.28;;;24.94;60.16
73024;BME280;61199;47.526;8.538;2023-08-17T02:15:00;96502.81;;;24.98;59.89
73024;BME280;61199;47.526;8.538;2023-08-17T02:17:26;96505.63;;;25.03;59.09
73024;BME280;61199;47.526;8.538;2023-08-17T02:19:53;96508.16;;;24.98;60.12
73024;BME280;61199;47.526;8.538;2023-08-17T02:22:20;96502.19;;;24.78;60.51
73024;BME280;61199;47.526;8.538;2023-08-17T02:24:46;96507.47;;;24.85;60.25
73024;BME280;61199;47.526;8.538;2023-08-17T02:27:13;96514.47;;;24.86;60.17
73024;BME280;61199;47.526;8.538;2023-08-17T02:29:39;96510.97;;;24.85;60.84
73024;BME280;61199;47.526;8.538;2023-08-17T02:32:06;96508.66;;;24.89;60.35
73024;BME280;61199;47.526;8.538;2023-08-17T02:34:32;96510.81;;;24.80;60.28
73024;BME280;61199;47.526;8.538;2023-08-17T02:36:58;96515.50;;;24.85;60.25
73024;BME280;61199;47.526;8.538;2023-08-17T02:39:25;96518.19;;;24.85;59.91
73024;BME280;61199;47.526;8.538;2023-08-17T02:41:52;96523.94;;;24.88;59.85
73024;BME280;61199;47.526;8.538;2023-08-17T02:44:18;96511.22;;;24.77;59.93
73024;BME280;61199;47.526;8.538;2023-08-17T02:46:45;96515.94;;;24.82;59.96
73024;BME280;61199;47.526;8.538;2023-08-17T02:49:11;96518.34;;;24.90;59.16
73024;BME280;61199;47.526;8.538;2023-08-17T02:51:37;96513.81;;;24.90;58.93
73024;BME280;61199;47.526;8.538;2023-08-17T02:54:04;96509.91;;;24.86;59.26
73024;BME280;61199;47.526;8.538;2023-08-17T02:56:30;96503.75;;;24.86;59.62
73024;BME280;61199;47.526;8.538;2023-08-17T02:58:57;96509.78;;;24.81;59.95
73024;BME280;61199;47.526;8.538;2023-08-17T03:01:24;96506.22;;;24.63;60.26
73024;BME280;61199;47.526;8.538;2023-08-17T03:03:51;96505.22;;;24.57;60.36
73024;BME280;61199;47.526;8.538;2023-08-17T03:06:17;96504.50;;;24.44;60.54
73024;BME280;61199;47.526;8.538;2023-08-17T03:08:43;96504.09;;;24.40;61.00
73024;BME280;61199;47.526;8.538;2023-08-17T03:11:10;96500.03;;;24.38;60.58
73024;BME280;61199;47.526;8.538;2023-08-17T03:13:36;96501.66;;;24.39;60.67
73024;BME280;61199;47.526;8.538;2023-08-17T03:16:03;96495.41;;;24.45;60.75
73024;BME280;61199;47.526;8.538;2023-08-17T03:18:29;96496.69;;;24.42;60.72
73024;BME280;61199;47.526;8.538;2023-08-17T03:20:55;96494.38;;;24.46;60.01
73024;BME280;61199;47.526;8.538;2023-08-17T03:23:22;96494.34;;;24.52;59.24
73024;BME280;61199;47.526;8.538;2023-08-17T03:25:52;96490.81;;;24.52;58.76
73024;BME280;61199;47.526;8.538;2023-08-17T03:28:19;96484.69;;;24.45;58.74
73024;BME280;61199;47.526;8.538;2023-08-17T03:30:46;96479.59;;;24.37;58.58
73024;BME280;61199;47.526;8.538;2023-08-17T03:33:12;96486.91;;;24.30;60.00
73024;BME280;61199;47.526;8.538;2023-08-17T03:35:38;96484.03;;;24.25;60.73
73024;BME280;61199;47.526;8.538;2023-08-17T03:38:05;96483.19;;;24.31;59.54
73024;BME280;61199;47.526;8.538;2023-08-17T03:40:31;96487.63;;;24.37;58.87
73024;BME280;61199;47.526;8.538;2023-08-17T03:42:57;96479.72;;;24.24;59.46
73024;BME280;61199;47.526;8.538;2023-08-17T03:45:24;96485.25;;;24.29;59.35
73024;BME280;61199;47.526;8.538;2023-08-17T03:47:50;96491.91;;;24.20;59.29
73024;BME280;61199;47.526;8.538;2023-08-17T03:50:17;96490.53;;;24.11;59.28
73024;BME280;61199;47.526;8.538;2023-08-17T03:52:43;96488.97;;;23.97;59.49
73024;BME280;61199;47.526;8.538;2023-08-17T03:55:10;96484.66;;;23.96;59.15
73024;BME280;61199;47.526;8.538;2023-08-17T03:57:36;96491.50;;;23.92;59.25
73024;BME280;61199;47.526;8.538;2023-08-17T04:00:05;96504.50;;;23.76;59.69
73024;BME280;61199;47.526;8.538;2023-08-17T04:02:32;96495.00;;;23.86;59.47
73024;BME280;61199;47.526;8.538;2023-08-17T04:04:59;96498.09;;;23.90;60.20
73024;BME280;61199;47.526;8.538;2023-08-17T04:07:25;96500.97;;;23.88;59.87
73024;BME280;61199;47.526;8.538;2023-08-17T04:09:52;96498.75;;;23.72;61.19
73024;BME280;61199;47.526;8.538;2023-08-17T04:12:18;96500.03;;;23.70;61.86
73024;BME280;61199;47.526;8.538;2023-08-17T04:14:45;96502.31;;;23.66;60.25
73024;BME280;61199;47.526;8.538;2023-08-17T04:17:11;96512.75;;;23.74;60.56
73024;BME280;61199;47.526;8.538;2023-08-17T04:19:38;96514.59;;;23.74;60.05
73024;BME280;61199;47.526;8.538;2023-08-17T04:22:04;96513.44;;;23.57;60.58
73024;BME280;61199;47.526;8.538;2023-08-17T04:24:31;96516.19;;;23.44;61.17
73024;BME280;61199;47.526;8.538;2023-08-17T04:26:57;96509.44;;;23.35;60.85
73024;BME280;61199;47.526;8.538;2023-08-17T04:29:24;96509.59;;;23.46;60.80
73024;BME280;61199;47.526;8.538;2023-08-17T04:31:50;96503.22;;;23.47;60.61
73024;BME280;61199;47.526;8.538;2023-08-17T04:34:16;96512.28;;;23.40;61.18
73024;BME280;61199;47.526;8.538;2023-08-17T04:36:43;96507.34;;;23.37;60.79
73024;BME280;61199;47.526;8.538;2023-08-17T04:39:09;96510.38;;;23.53;60.33
73024;BME280;61199;47.526;8.538;2023-08-17T04:41:36;96506.25;;;23.57;59.98
73024;BME280;61199;47.526;8.538;2023-08-17T04:44:02;96507.47;;;23.61;59.93
73024;BME280;61199;47.526;8.538;2023-08-17T04:46:29;96502.56;;;23.45;60.24
73024;BME280;61199;47.526;8.538;2023-08-17T04:48:55;96500.94;;;23.44;59.93
73024;BME280;61199;47.526;8.538;2023-08-17T04:51:21;96506.50;;;23.49;59.46
73024;BME280;61199;47.526;8.538;2023-08-17T04:53:48;96508.69;;;23.59;59.19
73024;BME280;61199;47.526;8.538;2023-08-17T04:56:14;96509.53;;;23.59;59.37
73024;BME280;61199;47.526;8.538;2023-08-17T04:58:41;96515.94;;;23.45;59.69
73024;BME280;61199;47.526;8.538;2023-08-17T05:01:07;96517.63;;;23.40;59.78
73024;BME280;61199;47.526;8.538;2023-08-17T05:03:33;96525.25;;;23.36;60.14
73024;BME280;61199;47.526;8.538;2023-08-17T05:06:00;96522.81;;;23.35;60.77
73024;BME280;61199;47.526;8.538;2023-08-17T05:08:27;96520.75;;;23.30;61.59
73024;BME280;61199;47.526;8.538;2023-08-17T05:10:53;96532.88;;;23.26;61.97
73024;BME280;61199;47.526;8.538;2023-08-17T05:13:20;96527.31;;;23.34;61.65
73024;BME280;61199;47.526;8.538;2023-08-17T05:15:46;96529.19;;;23.34;61.42
73024;BME280;61199;47.526;8.538;2023-08-17T05:18:12;96531.06;;;23.27;61.34
73024;BME280;61199;47.526;8.538;2023-08-17T05:20:39;96527.50;;;23.39;61.11
73024;BME280;61199;47.526;8.538;2023-08-17T05:23:05;96524.78;;;23.52;60.68
73024;BME280;61199;47.526;8.538;2023-08-17T05:25:32;96519.19;;;23.60;60.86
73024;BME280;61199;47.526;8.538;2023-08-17T05:27:58;96523.50;;;23.61;61.08
73024;BME280;61199;47.526;8.538;2023-08-17T05:30:24;96523.47;;;23.68;61.04
73024;BME280;61199;47.526;8.538;2023-08-17T05:32:51;96522.63;;;23.74;60.57
73024;BME280;61199;47.526;8.538;2023-08-17T05:35:17;96527.16;;;23.73;61.18
73024;BME280;61199;47.526;8.538;2023-08-17T05:37:44;96527.16;;;23.73;60.82
73024;BME280;61199;47.526;8.538;2023-08-17T05:40:11;96525.75;;;23.71;60.74
73024;BME280;61199;47.526;8.538;2023-08-17T05:42:37;96527.75;;;23.82;60.62
73024;BME280;61199;47.526;8.538;2023-08-17T05:45:04;96537.41;;;23.89;60.73
73024;BME280;61199;47.526;8.538;2023-08-17T05:47:30;96536.91;;;24.05;60.47
73024;BME280;61199;47.526;8.538;2023-08-17T05:49:57;96541.47;;;23.98;60.62
73024;BME280;61199;47.526;8.538;2023-08-17T05:52:23;96541.31;;;23.93;60.94
73024;BME280;61199;47.526;8.538;2023-08-17T05:54:50;96543.75;;;23.95;60.91
73024;BME280;61199;47.526;8.538;2023-08-17T05:57:16;96543.09;;;23.99;60.53
73024;BME280;61199;47.526;8.538;2023-08-17T05:59:43;96544.75;;;24.00;61.21
73024;BME280;61199;47.526;8.538;2023-08-17T06:02:09;96541.81;;;24.15;59.97
73024;BME280;61199;47.526;8.538;2023-08-17T06:04:36;96547.91;;;24.28;60.14
73024;BME280;61199;47.526;8.538;2023-08-17T06:07:03;96544.94;;;24.36;59.50
73024;BME280;61199;47.526;8.538;2023-08-17T06:09:30;96543.69;;;24.38;59.01
73024;BME280;61199;47.526;8.538;2023-08-17T06:11:56;96555.63;;;24.42;58.91
73024;BME280;61199;47.526;8.538;2023-08-17T06:14:22;96552.56;;;24.33;59.38
73024;BME280;61199;47.526;8.538;2023-08-17T06:16:49;96551.94;;;24.37;59.49
73024;BME280;61199;47.526;8.538;2023-08-17T06:19:15;96550.47;;;24.41;60.08
73024;BME280;61199;47.526;8.538;2023-08-17T06:21:42;96540.34;;;24.43;60.37
73024;BME280;61199;47.526;8.538;2023-08-17T06:24:08;96553.75;;;24.43;60.60
73024;BME280;61199;47.526;8.538;2023-08-17T06:26:34;96546.03;;;24.53;60.52
73024;BME280;61199;47.526;8.538;2023-08-17T06:29:01;96545.16;;;24.65;59.77
73024;BME280;61199;47.526;8.538;2023-08-17T06:31:29;96544.13;;;24.66;60.08
73024;BME280;61199;47.526;8.538;2023-08-17T06:33:56;96548.16;;;24.75;59.95
73024;BME280;61199;47.526;8.538;2023-08-17T06:36:23;96542.53;;;24.83;59.88
73024;BME280;61199;47.526;8.538;2023-08-17T06:38:49;96552.03;;;24.55;61.38
73024;BME280;61199;47.526;8.538;2023-08-17T06:41:16;96550.22;;;24.49;60.83
73024;BME280;61199;47.526;8.538;2023-08-17T06:43:43;96538.44;;;24.56;60.51
73024;BME280;61199;47.526;8.538;2023-08-17T06:46:10;96545.47;;;24.75;60.02
73024;BME280;61199;47.526;8.538;2023-08-17T06:48:36;96541.00;;;24.94;59.63
73024;BME280;61199;47.526;8.538;2023-08-17T06:51:03;96545.69;;;24.98;58.71
73024;BME280;61199;47.526;8.538;2023-08-17T06:53:31;96545.19;;;25.08;58.07
73024;BME280;61199;47.526;8.538;2023-08-17T06:55:57;96550.72;;;25.13;57.49
73024;BME280;61199;47.526;8.538;2023-08-17T06:58:28;96551.25;;;25.21;56.74
73024;BME280;61199;47.526;8.538;2023-08-17T07:00:54;96552.25;;;25.27;56.14
73024;BME280;61199;47.526;8.538;2023-08-17T07:03:21;96560.59;;;25.37;55.86
73024;BME280;61199;47.526;8.538;2023-08-17T07:05:47;96554.56;;;25.41;56.22
73024;BME280;61199;47.526;8.538;2023-08-17T07:08:14;96543.41;;;25.44;56.26
73024;BME280;61199;47.526;8.538;2023-08-17T07:10:41;96545.53;;;25.54;55.61
73024;BME280;61199;47.526;8.538;2023-08-17T07:13:07;96551.19;;;25.64;54.94
73024;BME280;61199;47.526;8.538;2023-08-17T07:15:33;96548.69;;;25.69;54.78
73024;BME280;61199;47.526;8.538;2023-08-17T07:18:00;96557.69;;;25.74;54.67
73024;BME280;61199;47.526;8.538;2023-08-17T07:20:27;96557.16;;;25.84;54.36
73024;BME280;61199;47.526;8.538;2023-08-17T07:22:53;96553.00;;;25.88;54.61
73024;BME280;61199;47.526;8.538;2023-08-17T07:25:19;96553.59;;;25.72;54.76
73024;BME280;61199;47.526;8.538;2023-08-17T07:27:46;96561.66;;;25.54;55.87
73024;BME280;61199;47.526;8.538;2023-08-17T07:30:13;96556.28;;;25.54;55.61
73024;BME280;61199;47.526;8.538;2023-08-17T07:32:39;96555.59;;;25.40;56.65
73024;BME280;61199;47.526;8.538;2023-08-17T07:35:06;96547.63;;;25.52;56.29
73024;BME280;61199;47.526;8.538;2023-08-17T07:37:33;96554.63;;;24.92;58.73
73024;BME280;61199;47.526;8.538;2023-08-17T07:40:00;96546.38;;;24.94;58.66
73024;BME280;61199;47.526;8.538;2023-08-17T07:42:29;96560.69;;;25.06;58.37
73024;BME280;61199;47.526;8.538;2023-08-17T07:44:55;96563.75;;;25.09;58.65
73024;BME280;61199;47.526;8.538;2023-08-17T07:47:22;96563.28;;;25.37;57.54
73024;BME280;61199;47.526;8.538;2023-08-17T07:49:48;96560.38;;;25.56;57.17
73024;BME280;61199;47.526;8.538;2023-08-17T07:52:15;96567.94;;;25.66;56.50
73024;BME280;61199;47.526;8.538;2023-08-17T07:54:42;96562.69;;;25.71;56.22
73024;BME280;61199;47.526;8.538;2023-08-17T07:57:09;96568.81;;;25.78;55.94
73024;BME280;61199;47.526;8.538;2023-08-17T07:59:35;96570.91;;;25.76;55.68
73024;BME280;61199;47.526;8.538;2023-08-17T08:02:01;96571.78;;;25.70;56.44
73024;BME280;61199;47.526;8.538;2023-08-17T08:04:28;96576.19;;;25.82;56.25
73024;BME280;61199;47.526;8.538;2023-08-17T08:06:54;96575.97;;;25.84;55.87
73024;BME280;61199;47.526;8.538;2023-08-17T08:09:21;96580.69;;;25.88;55.95
73024;BME280;61199;47.526;8.538;2023-08-17T08:11:47;96574.16;;;26.14;55.48
73024;BME280;61199;47.526;8.538;2023-08-17T08:14:14;96582.06;;;26.09;55.59
73024;BME280;61199;47.526;8.538;2023-08-17T08:16:40;96576.41;;;25.99;56.07
73024;BME280;61199;47.526;8.538;2023-08-17T08:19:07;96577.59;;;25.85;56.60
73024;BME280;61199;47.526;8.538;2023-08-17T08:21:33;96583.34;;;25.52;57.43
73024;BME280;61199;47.526;8.538;2023-08-17T08:24:50;96574.28;;;25.83;57.24
73024;BME280;61199;47.526;8.538;2023-08-17T08:27:16;96578.16;;;26.23;55.92
73024;BME280;61199;47.526;8.538;2023-08-17T08:29:43;96583.59;;;26.46;55.05
73024;BME280;61199;47.526;8.538;2023-08-17T08:32:09;96589.97;;;26.33;56.18
73024;BME280;61199;47.526;8.538;2023-08-17T08:34:36;96588.03;;;26.11;57.04
73024;BME280;61199;47.526;8.538;2023-08-17T08:37:02;96588.19;;;25.80;57.49
73024;BME280;61199;47.526;8.538;2023-08-17T08:39:28;96589.31;;;25.54;58.49
73024;BME280;61199;47.526;8.538;2023-08-17T08:41:55;96586.63;;;25.72;58.19
73024;BME280;61199;47.526;8.538;2023-08-17T08:44:22;96587.13;;;25.63;58.16
73024;BME280;61199;47.526;8.538;2023-08-17T08:46:50;96586.84;;;25.71;58.11
73024;BME280;61199;47.526;8.538;2023-08-17T08:49:23;96582.97;;;25.67;58.91
73024;BME280;61199;47.526;8.538;2023-08-17T08:51:50;96593.09;;;25.65;58.95
73024;BME280;61199;47.526;8.538;2023-08-17T08:54:21;96594.13;;;25.82;58.46
73024;BME280;61199;47.526;8.538;2023-08-17T08:56:54;96589.31;;;26.08;57.67
73024;BME280;61199;47.526;8.538;2023-08-17T08:59:25;96596.38;;;26.21;57.36
73024;BME280;61199;47.526;8.538;2023-08-17T09:01:54;96592.38;;;25.76;58.67
73024;BME280;61199;47.526;8.538;2023-08-17T09:04:21;96596.03;;;25.81;58.91
73024;BME280;61199;47.526;8.538;2023-08-17T09:06:48;96591.03;;;25.85;58.26
73024;BME280;61199;47.526;8.538;2023-08-17T09:09:16;96597.81;;;25.87;58.97
73024;BME280;61199;47.526;8.538;2023-08-17T09:11:44;96590.28;;;25.96;58.87
73024;BME280;61199;47.526;8.538;2023-08-17T09:14:11;96594.00;;;26.13;57.74
73024;BME280;61199;47.526;8.538;2023-08-17T09:16:38;96605.94;;;25.81;58.61
73024;BME280;61199;47.526;8.538;2023-08-17T09:19:05;96594.22;;;26.11;58.54
73024;BME280;61199;47.526;8.538;2023-08-17T09:21:32;96597.03;;;26.34;58.19
73024;BME280;61199;47.526;8.538;2023-08-17T09:23:59;96596.78;;;26.36;59.23
73024;BME280;61199;47.526;8.538;2023-08-17T09:26:30;96591.19;;;26.37;59.59
73024;BME280;61199;47.526;8.538;2023-08-17T09:28:57;96595.59;;;26.32;59.88
73024;BME280;61199;47.526;8.538;2023-08-17T09:31:25;96588.63;;;26.13;60.63
73024;BME280;61199;47.526;8.538;2023-08-17T09:33:52;96589.13;;;26.21;60.29
73024;BME280;61199;47.526;8.538;2023-08-17T09:36:23;96584.94;;;25.96;60.88
73024;BME280;61199;47.526;8.538;2023-08-17T09:38:50;96579.63;;;26.07;60.84
73024;BME280;61199;47.526;8.538;2023-08-17T09:41:18;96585.47;;;26.45;59.63
73024;BME280;61199;47.526;8.538;2023-08-17T09:43:46;96577.50;;;26.57;58.86
73024;BME280;61199;47.526;8.538;2023-08-17T09:46:14;96585.19;;;26.53;57.43
73024;BME280;61199;47.526;8.538;2023-08-17T09:48:43;96582.25;;;26.55;57.16
73024;BME280;61199;47.526;8.538;2023-08-17T09:51:09;96576.00;;;26.43;58.00
73024;BME280;61199;47.526;8.538;2023-08-17T09:53:36;96581.34;;;26.61;57.19
73024;BME280;61199;47.526;8.538;2023-08-17T09:56:05;96586.03;;;26.65;57.40
73024;BME280;61199;47.526;8.538;2023-08-17T09:58:31;96577.50;;;26.57;56.95
73024;BME280;61199;47.526;8.538;2023-08-17T10:00:58;96579.06;;;26.76;56.91
73024;BME280;61199;47.526;8.538;2023-08-17T10:03:26;96584.44;;;26.87;56.55
73024;BME280;61199;47.526;8.538;2023-08-17T10:05:59;96584.56;;;26.92;56.36
73024;BME280;61199;47.526;8.538;2023-08-17T10:08:28;96581.97;;;26.97;56.28
73024;BME280;61199;47.526;8.538;2023-08-17T10:10:57;96576.53;;;27.04;56.41
73024;BME280;61199;47.526;8.538;2023-08-17T10:13:35;96575.59;;;27.21;56.54
73024;BME280;61199;47.526;8.538;2023-08-17T10:18:40;96577.25;;;27.34;55.04
73024;BME280;61199;47.526;8.538;2023-08-17T10:21:14;96577.16;;;27.17;56.06
73024;BME280;61199;47.526;8.538;2023-08-17T10:23:44;96572.44;;;27.24;55.95
73024;BME280;61199;47.526;8.538;2023-08-17T10:26:12;96569.19;;;27.34;56.34
73024;BME280;61199;47.526;8.538;2023-08-17T10:28:39;96565.91;;;27.32;55.35
73024;BME280;61199;47.526;8.538;2023-08-17T10:31:07;96561.53;;;27.54;54.15
73024;BME280;61199;47.526;8.538;2023-08-17T10:33:37;96550.19;;;27.63;53.31
73024;BME280;61199;47.526;8.538;2023-08-17T10:36:06;96554.75;;;27.63;53.46
73024;BME280;61199;47.526;8.538;2023-08-17T10:38:32;96559.53;;;27.61;52.67
73024;BME280;61199;47.526;8.538;2023-08-17T10:41:12;96550.16;;;27.75;52.18
73024;BME280;61199;47.526;8.538;2023-08-17T10:43:58;96547.38;;;27.81;51.02
73024;BME280;61199;47.526;8.538;2023-08-17T10:46:37;96546.66;;;27.74;51.29
73024;BME280;61199;47.526;8.538;2023-08-17T10:49:07;96538.69;;;27.79;51.77
73024;BME280;61199;47.526;8.538;2023-08-17T10:52:03;96542.97;;;27.91;50.47
73024;BME280;61199;47.526;8.538;2023-08-17T10:54:39;96537.91;;;28.06;49.33
73024;BME280;61199;47.526;8.538;2023-08-17T10:57:30;96531.06;;;28.15;50.06
73024;BME280;61199;47.526;8.538;2023-08-17T11:00:19;96524.94;;;28.20;49.37
73024;BME280;61199;47.526;8.538;2023-08-17T11:02:58;96526.25;;;28.17;49.63
73024;BME280;61199;47.526;8.538;2023-08-17T11:05:44;96527.47;;;28.10;48.04
73024;BME280;61199;47.526;8.538;2023-08-17T11:08:23;96519.34;;;28.21;46.92
73024;BME280;61199;47.526;8.538;2023-08-17T11:11:13;96517.09;;;28.46;47.55
73024;BME280;61199;47.526;8.538;2023-08-17T11:13:42;96518.16;;;28.45;46.80
73024;BME280;61199;47.526;8.538;2023-08-17T11:16:12;96520.09;;;28.33;44.55
73024;BME280;61199;47.526;8.538;2023-08-17T11:18:43;96509.84;;;28.47;44.25
73024;BME280;61199;47.526;8.538;2023-08-17T11:21:10;96510.50;;;28.54;41.96
73024;BME280;61199;47.526;8.538;2023-08-17T11:23:37;96513.59;;;28.62;41.72
73024;BME280;61199;47.526;8.538;2023-08-17T11:26:04;96505.66;;;28.72;40.37
73024;BME280;61199;47.526;8.538;2023-08-17T11:28:32;96503.31;;;28.76;40.22
73024;BME280;61199;47.526;8.538;2023-08-17T11:31:12;96509.59;;;28.81;39.87
73024;BME280;61199;47.526;8.538;2023-08-17T11:33:40;96507.66;;;28.93;40.06
73024;BME280;61199;47.526;8.538;2023-08-17T11:36:08;96509.03;;;29.12;39.57
73024;BME280;61199;47.526;8.538;2023-08-17T11:38:41;96507.38;;;29.28;39.58
73024;BME280;61199;47.526;8.538;2023-08-17T11:41:09;96518.38;;;29.43;40.26
73024;BME280;61199;47.526;8.538;2023-08-17T11:43:36;96517.25;;;29.39;40.77
73024;BME280;61199;47.526;8.538;2023-08-17T11:46:04;96513.44;;;29.18;41.63
73024;BME280;61199;47.526;8.538;2023-08-17T11:48:31;96515.03;;;29.36;41.50
73024;BME280;61199;47.526;8.538;2023-08-17T11:51:02;96523.53;;;29.44;39.77
73024;BME280;61199;47.526;8.538;2023-08-17T11:53:34;96528.94;;;29.44;40.22
73024;BME280;61199;47.526;8.538;2023-08-17T11:56:00;96518.50;;;29.31;39.14
73024;BME280;61199;47.526;8.538;2023-08-17T11:58:51;96519.34;;;29.15;37.73
73024;BME280;61199;47.526;8.538;2023-08-17T12:01:18;96513.78;;;29.05;39.39
73024;BME280;61199;47.526;8.538;2023-08-17T12:03:45;96510.53;;;29.03;40.19
73024;BME280;61199;47.526;8.538;2023-08-17T12:06:12;96514.44;;;28.79;39.12
73024;BME280;61199;47.526;8.538;2023-08-17T12:08:47;96521.94;;;28.77;41.31
73024;BME280;61199;47.526;8.538;2023-08-17T12:11:17;96512.94;;;28.88;41.51
73024;BME280;61199;47.526;8.538;2023-08-17T12:13:51;96515.28;;;28.96;42.50
73024;BME280;61199;47.526;8.538;2023-08-17T12:16:18;96525.06;;;29.19;41.77
73024;BME280;61199;47.526;8.538;2023-08-17T12:18:48;96513.69;;;28.67;43.24
73024;BME280;61199;47.526;8.538;2023-08-17T12:21:15;96511.63;;;28.58;44.07
73024;BME280;61199;47.526;8.538;2023-08-17T12:23:41;96513.75;;;28.72;43.13
73024;BME280;61199;47.526;8.538;2023-08-17T12:26:09;96508.03;;;28.52;44.19
73024;BME280;61199;47.526;8.538;2023-08-17T12:28:35;96518.03;;;28.68;43.84
73024;BME280;61199;47.526;8.538;2023-08-17T12:31:03;96517.28;;;28.73;43.36
73024;BME280;61199;47.526;8.538;2023-08-17T12:33:30;96518.34;;;28.72;43.22
73024;BME280;61199;47.526;8.538;2023-08-17T12:35:56;96516.56;;;28.77;43.01
73024;BME280;61199;47.526;8.538;2023-08-17T12:38:24;96524.88;;;28.59;42.82
73024;BME280;61199;47.526;8.538;2023-08-17T12:40:51;96520.63;;;28.63;43.35
73024;BME280;61199;47.526;8.538;2023-08-17T12:43:18;96519.31;;;28.66;43.76
73024;BME280;61199;47.526;8.538;2023-08-17T12:45:44;96522.69;;;28.73;44.08
73024;BME280;61199;47.526;8.538;2023-08-17T12:48:10;96512.63;;;28.68;44.01
73024;BME280;61199;47.526;8.538;2023-08-17T12:50:37;96511.00;;;28.67;43.62
73024;BME280;61199;47.526;8.538;2023-08-17T12:53:08;96515.34;;;28.68;42.78
73024;BME280;61199;47.526;8.538;2023-08-17T12:55:35;96511.81;;;28.68;43.18
73024;BME280;61199;47.526;8.538;2023-08-17T12:58:02;96511.16;;;28.77;43.94
73024;BME280;61199;47.526;8.538;2023-08-17T13:00:28;96510.34;;;28.77;43.76
73024;BME280;61199;47.526;8.538;2023-08-17T13:02:55;96512.13;;;28.71;44.13
73024;BME280;61199;47.526;8.538;2023-08-17T13:05:21;96504.28;;;28.86;43.65
73024;BME280;61199;47.526;8.538;2023-08-17T13:07:47;96503.97;;;28.66;44.79
73024;BME280;61199;47.526;8.538;2023-08-17T13:10:14;96506.56;;;28.61;45.39
73024;BME280;61199;47.526;8.538;2023-08-17T13:12:40;96510.00;;;28.73;44.31